sensor_id;sensor_type;location;lat;lon;timestamp;temperature;humidity
12845;DHT22;68700;48.534;9.196;2024-02-15T00:03:16;8.80;99.90
12845;DHT22;68700;48.534;9.196;2024-02-15T00:06:38;8.80;99.90
12845;DHT22;68700;48.534;9.196;2024-02-15T00:10:01;8.80;99.90
12845;DHT22;68700;48.534;9.196;2024-02-15T00:13:23;8.80;99.90
12845;DHT22;68700;48.534;9.196;2024-02-15T00:16:45;8.80;99.90
12845;DHT22;68700;48.534;9.196;2024-02-15T00:20:08;8.80;99.90
12845;DHT22;68700;48.534;9.196;2024-02-15T00:23:30;8.80;99.90
12845;DHT22;68700;48.534;9.196;2024-02-15T00:26:54;8.80;99.90
12845;DHT22;68700;48.534;9.196;2024-02-15T00:30:16;8.80;99.90
12845;DHT22;68700;48.534;9.196;2024-02-15T00:33:38;8.80;99.90
12845;DHT22;68700;48.534;9.196;2024-02-15T00:37:00;8.90;99.90
12845;DHT22;68700;48.534;9.196;2024-02-15T00:40:22;8.90;99.90
12845;DHT22;68700;48.534;9.196;2024-02-15T00:43:45;9.00;99.90
12845;DHT22;68700;48.534;9.196;2024-02-15T00:47:07;9.00;99.90
12845;DHT22;68700;48.534;9.196;2024-02-15T00:50:29;9.00;99.90
12845;DHT22;68700;48.534;9.196;2024-02-15T00:53:51;9.00;99.90
12845;DHT22;68700;48.534;9.196;2024-02-15T00:57:13;9.00;99.90
12845;DHT22;68700;48.534;9.196;2024-02-15T01:00:36;9.00;99.90
12845;DHT22;68700;48.534;9.196;2024-02-15T01:03:58;9.00;99.90
12845;DHT22;68700;48.534;9.196;2024-02-15T01:07:20;9.10;99.90
12845;DHT22;68700;48.534;9.196;2024-02-15T01:10:42;9.00;99.90
12845;DHT22;68700;48.534;9.196;2024-02-15T01:14:04;9.00;99.90
12845;DHT22;68700;48.534;9.196;2024-02-15T01:17:28;8.90;99.90
12845;DHT22;68700;48.534;9.196;2024-02-15T01:20:50;8.80;99.90
12845;DHT22;68700;48.534;9.196;2024-02-15T01:24:13;8.60;99.90
12845;DHT22;68700;48.534;9.196;2024-02-15T01:27:34;8.50;99.90
12845;DHT22;68700;48.534;9.196;2024-02-15T01:30:56;8.40;99.90
12845;DHT22;68700;48.534;9.196;2024-02-15T01:34:19;8.20;99.90
12845;DHT22;68700;48.534;9.196;2024-02-15T01:37:41;8.00;99.90
12845;DHT22;68700;48.534;9.196;2024-02-15T01:41:03;7.80;99.90
12845;DHT22;68700;48.534;9.196;2024-02-15T01:44:25;7.70;99.90
12845;DHT22;68700;48.534;9.196;2024-02-15T01:47:48;7.70;99.90
12845;DHT22;68700;48.534;9.196;2024-02-15T01:51:12;7.80;99.90
12845;DHT22;68700;48.534;9.196;2024-02-15T01:54:36;7.80;99.90
12845;DHT22;68700;48.534;9.196;2024-02-15T01:58:00;7.70;99.90
12845;DHT22;68700;48.534;9.196;2024-02-15T02:01:22;7.70;99.90
12845;DHT22;68700;48.534;9.196;2024-02-15T02:04:45;7.60;99.90
12845;DHT22;68700;48.534;9.196;2024-02-15T02:08:08;7.60;99.90
12845;DHT22;68700;48.534;9.196;2024-02-15T02:11:30;7.40;99.90
12845;DHT22;68700;48.534;9.196;2024-02-15T02:14:53;7.30;99.90
12845;DHT22;68700;48.534;9.196;2024-02-15T02:18:15;7.20;99.90
12845;DHT22;68700;48.534;9.196;2024-02-15T02:21:38;7.10;99.90
12845;DHT22;68700;48.534;9.196;2024-02-15T02:25:05;6.90;99.90
12845;DHT22;68700;48.534;9.196;2024-02-15T02:28:28;6.80;99.90
12845;DHT22;68700;48.534;9.196;2024-02-15T02:31:50;6.70;99.90
12845;DHT22;68700;48.534;9.196;2024-02-15T02:35:12;6.60;99.90
12845;DHT22;68700;48.534;9.196;2024-02-15T02:38:35;6.50;99.90
12845;DHT22;68700;48.534;9.196;2024-02-15T02:41:59;6.50;99.90
12845;DHT22;68700;48.534;9.196;2024-02-15T02:45:22;6.50;1.00
12845;DHT22;68700;48.534;9.196;2024-02-15T02:48:44;6.50;1.00
12845;DHT22;68700;48.534;9.196;2024-02-15T02:52:06;6.60;1.00
12845;DHT22;68700;48.534;9.196;2024-02-15T02:55:28;6.60;1.00
12845;DHT22;68700;48.534;9.196;2024-02-15T02:58:52;6.70;1.00
12845;DHT22;68700;48.534;9.196;2024-02-15T03:02:17;6.60;1.00
12845;DHT22;68700;48.534;9.196;2024-02-15T03:05:39;6.60;1.00
12845;DHT22;68700;48.534;9.196;2024-02-15T03:09:01;6.50;1.00
12845;DHT22;68700;48.534;9.196;2024-02-15T03:12:27;6.50;1.00
12845;DHT22;68700;48.534;9.196;2024-02-15T03:15:51;6.40;1.00
12845;DHT22;68700;48.534;9.196;2024-02-15T03:19:13;6.30;1.00
12845;DHT22;68700;48.534;9.196;2024-02-15T03:22:37;6.20;1.00
12845;DHT22;68700;48.534;9.196;2024-02-15T03:26:01;6.10;1.00
12845;DHT22;68700;48.534;9.196;2024-02-15T03:29:24;6.00;1.00
12845;DHT22;68700;48.534;9.196;2024-02-15T03:32:48;6.10;1.00
12845;DHT22;68700;48.534;9.196;2024-02-15T03:36:11;6.00;1.00
12845;DHT22;68700;48.534;9.196;2024-02-15T03:39:36;5.90;1.00
12845;DHT22;68700;48.534;9.196;2024-02-15T03:42:58;5.80;1.00
12845;DHT22;68700;48.534;9.196;2024-02-15T03:46:20;5.80;1.00
12845;DHT22;68700;48.534;9.196;2024-02-15T03:49:45;5.80;1.00
12845;DHT22;68700;48.534;9.196;2024-02-15T03:53:09;5.80;1.00
12845;DHT22;68700;48.534;9.196;2024-02-15T03:56:32;5.90;1.00
12845;DHT22;68700;48.534;9.196;2024-02-15T03:59:54;5.90;1.00
12845;DHT22;68700;48.534;9.196;2024-02-15T04:03:17;5.80;1.00
12845;DHT22;68700;48.534;9.196;2024-02-15T04:06:40;5.80;1.00
12845;DHT22;68700;48.534;9.196;2024-02-15T04:10:04;5.80;1.00
12845;DHT22;68700;48.534;9.196;2024-02-15T04:13:26;5.90;1.00
12845;DHT22;68700;48.534;9.196;2024-02-15T04:16:48;5.90;1.00
12845;DHT22;68700;48.534;9.196;2024-02-15T04:20:10;6.00;1.00
12845;DHT22;68700;48.534;9.196;2024-02-15T04:23:34;6.10;1.00
12845;DHT22;68700;48.534;9.196;2024-02-15T04:26:56;6.20;1.00
12845;DHT22;68700;48.534;9.196;2024-02-15T04:30:19;6.30;1.00
12845;DHT22;68700;48.534;9.196;2024-02-15T04:33:44;6.40;1.00
12845;DHT22;68700;48.534;9.196;2024-02-15T04:37:09;6.60;1.00
12845;DHT22;68700;48.534;9.196;2024-02-15T04:40:32;6.70;1.00
12845;DHT22;68700;48.534;9.196;2024-02-15T04:43:54;6.70;1.00
12845;DHT22;68700;48.534;9.196;2024-02-15T04:47:16;6.80;1.00
12845;DHT22;68700;48.534;9.196;2024-02-15T04:50:38;6.80;1.00
12845;DHT22;68700;48.534;9.196;2024-02-15T04:54:03;6.80;1.00
12845;DHT22;68700;48.534;9.196;2024-02-15T04:57:29;6.80;1.00
12845;DHT22;68700;48.534;9.196;2024-02-15T05:00:50;6.80;1.00
12845;DHT22;68700;48.534;9.196;2024-02-15T05:04:15;6.80;1.00
12845;DHT22;68700;48.534;9.196;2024-02-15T05:07:37;6.70;1.00
12845;DHT22;68700;48.534;9.196;2024-02-15T05:10:59;6.70;1.00
12845;DHT22;68700;48.534;9.196;2024-02-15T05:14:23;6.60;1.00
12845;DHT22;68700;48.534;9.196;2024-02-15T05:17:44;6.50;1.00
12845;DHT22;68700;48.534;9.196;2024-02-15T05:21:08;6.50;1.00
12845;DHT22;68700;48.534;9.196;2024-02-15T05:24:30;6.50;1.00
12845;DHT22;68700;48.534;9.196;2024-02-15T05:27:53;6.40;1.00
12845;DHT22;68700;48.534;9.196;2024-02-15T05:31:17;6.30;1.00
12845;DHT22;68700;48.534;9.196;2024-02-15T05:34:40;6.30;1.00
12845;DHT22;68700;48.534;9.196;2024-02-15T05:38:02;6.20;1.00
12845;DHT22;68700;48.534;9.196;2024-02-15T05:41:26;6.10;1.00
12845;DHT22;68700;48.534;9.196;2024-02-15T05:44:48;6.00;1.00
12845;DHT22;68700;48.534;9.196;2024-02-15T05:48:12;5.80;1.00
12845;DHT22;68700;48.534;9.196;2024-02-15T05:51:34;5.80;1.00
12845;DHT22;68700;48.534;9.196;2024-02-15T05:54:56;5.90;1.00
12845;DHT22;68700;48.534;9.196;2024-02-15T05:58:18;5.80;1.00
12845;DHT22;68700;48.534;9.196;2024-02-15T06:01:40;5.70;1.00
12845;DHT22;68700;48.534;9.196;2024-02-15T06:05:04;5.60;1.00
12845;DHT22;68700;48.534;9.196;2024-02-15T06:08:27;5.40;1.00
12845;DHT22;68700;48.534;9.196;2024-02-15T06:11:50;5.50;1.00
12845;DHT22;68700;48.534;9.196;2024-02-15T06:15:16;5.40;1.00
12845;DHT22;68700;48.534;9.196;2024-02-15T06:18:38;5.40;1.00
12845;DHT22;68700;48.534;9.196;2024-02-15T06:22:01;5.40;1.00
12845;DHT22;68700;48.534;9.196;2024-02-15T06:25:24;5.40;1.00
12845;DHT22;68700;48.534;9.196;2024-02-15T06:28:46;5.40;1.00
12845;DHT22;68700;48.534;9.196;2024-02-15T06:32:26;5.30;1.00
12845;DHT22;68700;48.534;9.196;2024-02-15T06:36:06;5.30;1.00
12845;DHT22;68700;48.534;9.196;2024-02-15T06:39:47;5.30;1.00
12845;DHT22;68700;48.534;9.196;2024-02-15T06:43:10;5.30;1.00
12845;DHT22;68700;48.534;9.196;2024-02-15T06:46:32;5.30;1.00
12845;DHT22;68700;48.534;9.196;2024-02-15T06:49:54;5.30;1.00
12845;DHT22;68700;48.534;9.196;2024-02-15T06:53:16;5.40;1.00
12845;DHT22;68700;48.534;9.196;2024-02-15T06:56:42;5.50;1.00
12845;DHT22;68700;48.534;9.196;2024-02-15T07:00:06;5.60;1.00
12845;DHT22;68700;48.534;9.196;2024-02-15T07:03:33;5.80;1.00
12845;DHT22;68700;48.534;9.196;2024-02-15T07:06:54;6.00;1.00
12845;DHT22;68700;48.534;9.196;2024-02-15T07:10:17;6.10;1.00
12845;DHT22;68700;48.534;9.196;2024-02-15T07:13:40;6.20;1.00
12845;DHT22;68700;48.534;9.196;2024-02-15T07:17:04;6.40;1.00
12845;DHT22;68700;48.534;9.196;2024-02-15T07:20:27;6.80;1.00
12845;DHT22;68700;48.534;9.196;2024-02-15T07:23:49;7.30;1.00
12845;DHT22;68700;48.534;9.196;2024-02-15T07:27:12;7.70;1.00
12845;DHT22;68700;48.534;9.196;2024-02-15T07:30:35;9.10;1.00
12845;DHT22;68700;48.534;9.196;2024-02-15T07:33:57;9.60;99.90
12845;DHT22;68700;48.534;9.196;2024-02-15T07:37:19;10.50;1.00
12845;DHT22;68700;48.534;9.196;2024-02-15T07:40:44;12.10;1.00
12845;DHT22;68700;48.534;9.196;2024-02-15T07:44:06;12.50;1.00
12845;DHT22;68700;48.534;9.196;2024-02-15T07:47:30;13.00;1.00
12845;DHT22;68700;48.534;9.196;2024-02-15T07:50:52;14.00;1.00
12845;DHT22;68700;48.534;9.196;2024-02-15T07:54:14;15.60;1.00
12845;DHT22;68700;48.534;9.196;2024-02-15T07:57:36;16.00;1.00
12845;DHT22;68700;48.534;9.196;2024-02-15T08:00:58;17.40;1.00
12845;DHT22;68700;48.534;9.196;2024-02-15T08:04:21;18.20;1.00
12845;DHT22;68700;48.534;9.196;2024-02-15T08:07:45;18.50;1.00
12845;DHT22;68700;48.534;9.196;2024-02-15T08:11:07;19.30;1.00
12845;DHT22;68700;48.534;9.196;2024-02-15T08:14:35;19.00;1.00
12845;DHT22;68700;48.534;9.196;2024-02-15T08:17:57;17.70;1.00
12845;DHT22;68700;48.534;9.196;2024-02-15T08:21:25;17.20;1.00
12845;DHT22;68700;48.534;9.196;2024-02-15T08:24:48;17.90;1.00
12845;DHT22;68700;48.534;9.196;2024-02-15T08:28:09;18.30;1.00
12845;DHT22;68700;48.534;9.196;2024-02-15T08:31:31;19.60;1.00
12845;DHT22;68700;48.534;9.196;2024-02-15T08:34:54;18.70;1.00
12845;DHT22;68700;48.534;9.196;2024-02-15T08:38:17;18.80;1.00
12845;DHT22;68700;48.534;9.196;2024-02-15T08:41:39;17.50;1.00
12845;DHT22;68700;48.534;9.196;2024-02-15T08:45:01;17.20;1.00
12845;DHT22;68700;48.534;9.196;2024-02-15T08:48:25;17.10;1.00
12845;DHT22;68700;48.534;9.196;2024-02-15T08:51:47;17.10;1.00
12845;DHT22;68700;48.534;9.196;2024-02-15T08:55:12;16.30;1.00
12845;DHT22;68700;48.534;9.196;2024-02-15T08:58:35;16.30;1.00
12845;DHT22;68700;48.534;9.196;2024-02-15T09:01:57;16.90;1.00
12845;DHT22;68700;48.534;9.196;2024-02-15T09:05:20;17.10;1.00
12845;DHT22;68700;48.534;9.196;2024-02-15T09:08:42;15.90;1.00
12845;DHT22;68700;48.534;9.196;2024-02-15T09:12:07;16.50;1.00
12845;DHT22;68700;48.534;9.196;2024-02-15T09:15:29;16.60;1.00
12845;DHT22;68700;48.534;9.196;2024-02-15T09:18:51;15.90;1.00
12845;DHT22;68700;48.534;9.196;2024-02-15T09:22:14;16.80;1.00
12845;DHT22;68700;48.534;9.196;2024-02-15T09:25:38;16.20;1.00
12845;DHT22;68700;48.534;9.196;2024-02-15T09:29:01;16.90;1.00
12845;DHT22;68700;48.534;9.196;2024-02-15T09:32:23;18.20;1.00
12845;DHT22;68700;48.534;9.196;2024-02-15T09:35:45;17.90;1.00
12845;DHT22;68700;48.534;9.196;2024-02-15T09:39:07;20.40;1.00
12845;DHT22;68700;48.534;9.196;2024-02-15T09:42:29;20.80;1.00
12845;DHT22;68700;48.534;9.196;2024-02-15T09:45:52;20.50;1.00
12845;DHT22;68700;48.534;9.196;2024-02-15T09:49:15;21.70;1.00
12845;DHT22;68700;48.534;9.196;2024-02-15T09:52:38;22.60;1.00
12845;DHT22;68700;48.534;9.196;2024-02-15T09:56:01;21.00;1.00
12845;DHT22;68700;48.534;9.196;2024-02-15T09:59:24;21.90;1.00
12845;DHT22;68700;48.534;9.196;2024-02-15T10:02:50;21.00;1.00
12845;DHT22;68700;48.534;9.196;2024-02-15T10:06:13;21.80;1.00
12845;DHT22;68700;48.534;9.196;2024-02-15T10:09:35;22.30;1.00
12845;DHT22;68700;48.534;9.196;2024-02-15T10:12:58;22.20;1.00
12845;DHT22;68700;48.534;9.196;2024-02-15T10:16:21;22.30;1.00
12845;DHT22;68700;48.534;9.196;2024-02-15T10:20:03;22.00;1.00
12845;DHT22;68700;48.534;9.196;2024-02-15T10:23:25;21.80;1.00
12845;DHT22;68700;48.534;9.196;2024-02-15T10:26:48;22.10;1.00
12845;DHT22;68700;48.534;9.196;2024-02-15T10:30:18;24.00;1.00
12845;DHT22;68700;48.534;9.196;2024-02-15T10:33:40;24.10;1.00
12845;DHT22;68700;48.534;9.196;2024-02-15T10:37:12;24.80;1.00
12845;DHT22;68700;48.534;9.196;2024-02-15T10:40:35;24.40;1.00
12845;DHT22;68700;48.534;9.196;2024-02-15T10:43:57;22.80;1.00
12845;DHT22;68700;48.534;9.196;2024-02-15T10:47:19;23.60;1.00
12845;DHT22;68700;48.534;9.196;2024-02-15T10:50:41;22.50;1.00
12845;DHT22;68700;48.534;9.196;2024-02-15T10:54:06;23.50;1.00
12845;DHT22;68700;48.534;9.196;2024-02-15T10:57:33;23.40;1.00
12845;DHT22;68700;48.534;9.196;2024-02-15T11:00:59;23.30;1.00
12845;DHT22;68700;48.534;9.196;2024-02-15T11:04:22;24.40;1.00
12845;DHT22;68700;48.534;9.196;2024-02-15T11:07:46;25.30;1.00
12845;DHT22;68700;48.534;9.196;2024-02-15T11:11:09;25.00;1.00
12845;DHT22;68700;48.534;9.196;2024-02-15T11:14:35;23.60;1.00
12845;DHT22;68700;48.534;9.196;2024-02-15T11:17:56;24.10;1.00
12845;DHT22;68700;48.534;9.196;2024-02-15T11:21:54;25.30;1.00
12845;DHT22;68700;48.534;9.196;2024-02-15T11:25:31;23.80;1.00
12845;DHT22;68700;48.534;9.196;2024-02-15T11:28:56;25.00;1.00
12845;DHT22;68700;48.534;9.196;2024-02-15T11:32:40;24.50;1.00
12845;DHT22;68700;48.534;9.196;2024-02-15T11:36:05;25.80;1.00
12845;DHT22;68700;48.534;9.196;2024-02-15T11:39:42;25.70;1.00
12845;DHT22;68700;48.534;9.196;2024-02-15T11:43:04;25.60;1.00
12845;DHT22;68700;48.534;9.196;2024-02-15T11:46:27;26.50;1.00
12845;DHT22;68700;48.534;9.196;2024-02-15T11:49:54;26.90;1.00
12845;DHT22;68700;48.534;9.196;2024-02-15T11:53:16;24.80;1.00
12845;DHT22;68700;48.534;9.196;2024-02-15T11:56:54;25.10;1.00
12845;DHT22;68700;48.534;9.196;2024-02-15T12:00:28;25.50;1.00
12845;DHT22;68700;48.534;9.196;2024-02-15T12:04:08;24.90;1.00
12845;DHT22;68700;48.534;9.196;2024-02-15T12:07:53;24.90;1.00
12845;DHT22;68700;48.534;9.196;2024-02-15T12:11:33;23.80;1.00
12845;DHT22;68700;48.534;9.196;2024-02-15T12:15:13;25.00;1.00
12845;DHT22;68700;48.534;9.196;2024-02-15T12:18:52;24.60;1.00
12845;DHT22;68700;48.534;9.196;2024-02-15T12:22:17;24.20;1.00
12845;DHT22;68700;48.534;9.196;2024-02-15T12:25:41;24.00;1.00
12845;DHT22;68700;48.534;9.196;2024-02-15T12:29:02;24.80;1.00
12845;DHT22;68700;48.534;9.196;2024-02-15T12:32:27;24.00;1.40
12845;DHT22;68700;48.534;9.196;2024-02-15T12:35:49;24.80;1.00
12845;DHT22;68700;48.534;9.196;2024-02-15T12:39:13;24.20;1.00
12845;DHT22;68700;48.534;9.196;2024-02-15T12:42:38;22.80;99.90
12845;DHT22;68700;48.534;9.196;2024-02-15T12:46:00;23.20;99.90
12845;DHT22;68700;48.534;9.196;2024-02-15T12:49:29;23.00;99.90
12845;DHT22;68700;48.534;9.196;2024-02-15T12:52:52;22.80;99.90
12845;DHT22;68700;48.534;9.196;2024-02-15T12:56:21;23.00;99.90
12845;DHT22;68700;48.534;9.196;2024-02-15T12:59:44;22.80;99.90
12845;DHT22;68700;48.534;9.196;2024-02-15T13:03:08;22.60;99.90
12845;DHT22;68700;48.534;9.196;2024-02-15T13:06:30;22.20;99.90
12845;DHT22;68700;48.534;9.196;2024-02-15T13:09:55;21.80;99.90
12845;DHT22;68700;48.534;9.196;2024-02-15T13:13:18;22.00;1.00
12845;DHT22;68700;48.534;9.196;2024-02-15T13:16:41;21.40;99.90
12845;DHT22;68700;48.534;9.196;2024-02-15T13:20:06;21.60;99.90
12845;DHT22;68700;48.534;9.196;2024-02-15T13:23:32;21.20;99.90
12845;DHT22;68700;48.534;9.196;2024-02-15T13:26:56;21.20;99.90
12845;DHT22;68700;48.534;9.196;2024-02-15T13:30:19;21.40;99.90
12845;DHT22;68700;48.534;9.196;2024-02-15T13:33:47;21.70;99.90
12845;DHT22;68700;48.534;9.196;2024-02-15T13:37:09;21.60;99.90
12845;DHT22;68700;48.534;9.196;2024-02-15T13:40:31;21.70;99.90
12845;DHT22;68700;48.534;9.196;2024-02-15T13:43:53;21.70;99.90
12845;DHT22;68700;48.534;9.196;2024-02-15T13:47:17;20.90;99.90
12845;DHT22;68700;48.534;9.196;2024-02-15T13:50:39;20.10;99.90
12845;DHT22;68700;48.534;9.196;2024-02-15T13:54:01;20.00;99.90
12845;DHT22;68700;48.534;9.196;2024-02-15T13:57:23;20.20;99.90
12845;DHT22;68700;48.534;9.196;2024-02-15T14:00:48;19.80;99.90
12845;DHT22;68700;48.534;9.196;2024-02-15T14:04:11;19.30;99.90
12845;DHT22;68700;48.534;9.196;2024-02-15T14:07:33;19.20;99.90
12845;DHT22;68700;48.534;9.196;2024-02-15T14:10:57;19.50;99.90
12845;DHT22;68700;48.534;9.196;2024-02-15T14:14:25;19.70;99.90
12845;DHT22;68700;48.534;9.196;2024-02-15T14:17:47;19.50;99.90
12845;DHT22;68700;48.534;9.196;2024-02-15T14:21:11;19.50;99.90
12845;DHT22;68700;48.534;9.196;2024-02-15T14:24:33;19.70;99.90
12845;DHT22;68700;48.534;9.196;2024-02-15T14:27:54;19.60;99.90
12845;DHT22;68700;48.534;9.196;2024-02-15T14:31:18;19.40;99.90
12845;DHT22;68700;48.534;9.196;2024-02-15T14:34:57;19.70;99.90
12845;DHT22;68700;48.534;9.196;2024-02-15T14:38:20;19.40;99.90
12845;DHT22;68700;48.534;9.196;2024-02-15T14:41:43;19.30;99.90
12845;DHT22;68700;48.534;9.196;2024-02-15T14:45:07;19.70;99.90
12845;DHT22;68700;48.534;9.196;2024-02-15T14:48:29;20.00;99.90
12845;DHT22;68700;48.534;9.196;2024-02-15T14:51:52;20.00;99.90
12845;DHT22;68700;48.534;9.196;2024-02-15T14:55:15;20.00;99.90
12845;DHT22;68700;48.534;9.196;2024-02-15T14:58:37;19.50;99.90
12845;DHT22;68700;48.534;9.196;2024-02-15T15:02:01;19.40;99.90
12845;DHT22;68700;48.534;9.196;2024-02-15T15:05:29;19.60;99.90
12845;DHT22;68700;48.534;9.196;2024-02-15T15:09:09;19.90;99.90
12845;DHT22;68700;48.534;9.196;2024-02-15T15:12:50;19.50;99.90
12845;DHT22;68700;48.534;9.196;2024-02-15T15:16:12;19.30;99.90
12845;DHT22;68700;48.534;9.196;2024-02-15T15:19:35;18.90;99.90
12845;DHT22;68700;48.534;9.196;2024-02-15T15:22:57;18.50;99.90
12845;DHT22;68700;48.534;9.196;2024-02-15T15:26:21;18.70;99.90
12845;DHT22;68700;48.534;9.196;2024-02-15T15:29:44;18.90;99.90
12845;DHT22;68700;48.534;9.196;2024-02-15T15:33:06;18.50;99.90
12845;DHT22;68700;48.534;9.196;2024-02-15T15:36:29;18.40;99.90
12845;DHT22;68700;48.534;9.196;2024-02-15T15:39:51;18.20;99.90
12845;DHT22;68700;48.534;9.196;2024-02-15T15:43:15;18.00;99.90
12845;DHT22;68700;48.534;9.196;2024-02-15T15:46:38;17.80;99.90
12845;DHT22;68700;48.534;9.196;2024-02-15T15:50:01;17.60;99.90
12845;DHT22;68700;48.534;9.196;2024-02-15T15:53:22;17.20;99.90
12845;DHT22;68700;48.534;9.196;2024-02-15T15:56:44;17.00;1.40
12845;DHT22;68700;48.534;9.196;2024-02-15T16:00:07;16.80;1.00
12845;DHT22;68700;48.534;9.196;2024-02-15T16:03:34;16.60;1.00
12845;DHT22;68700;48.534;9.196;2024-02-15T16:06:56;16.40;1.00
12845;DHT22;68700;48.534;9.196;2024-02-15T16:10:18;16.20;1.00
12845;DHT22;68700;48.534;9.196;2024-02-15T16:13:45;16.00;1.00
12845;DHT22;68700;48.534;9.196;2024-02-15T16:17:10;15.80;1.00
12845;DHT22;68700;48.534;9.196;2024-02-15T16:20:34;15.60;1.00
12845;DHT22;68700;48.534;9.196;2024-02-15T16:23:56;15.40;1.00
12845;DHT22;68700;48.534;9.196;2024-02-15T16:27:17;15.10;1.00
12845;DHT22;68700;48.534;9.196;2024-02-15T16:30:39;14.90;1.00
12845;DHT22;68700;48.534;9.196;2024-02-15T16:34:01;14.60;1.00
12845;DHT22;68700;48.534;9.196;2024-02-15T16:37:24;14.50;1.00
12845;DHT22;68700;48.534;9.196;2024-02-15T16:40:46;14.30;1.00
12845;DHT22;68700;48.534;9.196;2024-02-15T16:44:09;14.20;1.00
12845;DHT22;68700;48.534;9.196;2024-02-15T16:47:31;14.20;1.00
12845;DHT22;68700;48.534;9.196;2024-02-15T16:50:56;14.10;1.00
12845;DHT22;68700;48.534;9.196;2024-02-15T16:54:20;14.00;1.00
12845;DHT22;68700;48.534;9.196;2024-02-15T16:57:42;13.90;1.00
12845;DHT22;68700;48.534;9.196;2024-02-15T17:01:05;14.00;1.00
12845;DHT22;68700;48.534;9.196;2024-02-15T17:04:27;13.80;1.00
12845;DHT22;68700;48.534;9.196;2024-02-15T17:07:49;13.80;1.00
12845;DHT22;68700;48.534;9.196;2024-02-15T17:11:12;13.80;1.00
12845;DHT22;68700;48.534;9.196;2024-02-15T17:14:34;13.90;1.00
12845;DHT22;68700;48.534;9.196;2024-02-15T17:17:58;13.90;1.00
12845;DHT22;68700;48.534;9.196;2024-02-15T17:21:20;13.80;1.00
12845;DHT22;68700;48.534;9.196;2024-02-15T17:24:43;13.70;1.00
12845;DHT22;68700;48.534;9.196;2024-02-15T17:28:07;13.60;1.00
12845;DHT22;68700;48.534;9.196;2024-02-15T17:31:29;13.50;1.00
12845;DHT22;68700;48.534;9.196;2024-02-15T17:34:51;13.40;1.00
12845;DHT22;68700;48.534;9.196;2024-02-15T17:38:13;13.30;1.00
12845;DHT22;68700;48.534;9.196;2024-02-15T17:41:35;13.20;1.00
12845;DHT22;68700;48.534;9.196;2024-02-15T17:45:00;13.30;1.00
12845;DHT22;68700;48.534;9.196;2024-02-15T17:48:22;13.20;1.00
12845;DHT22;68700;48.534;9.196;2024-02-15T17:51:45;13.10;1.00
12845;DHT22;68700;48.534;9.196;2024-02-15T17:55:08;13.00;1.00
12845;DHT22;68700;48.534;9.196;2024-02-15T17:58:30;13.00;1.00
12845;DHT22;68700;48.534;9.196;2024-02-15T18:01:56;12.90;1.00
12845;DHT22;68700;48.534;9.196;2024-02-15T18:05:18;13.00;1.00
12845;DHT22;68700;48.534;9.196;2024-02-15T18:08:40;12.90;1.00
12845;DHT22;68700;48.534;9.196;2024-02-15T18:12:04;12.90;1.00
12845;DHT22;68700;48.534;9.196;2024-02-15T18:15:26;12.80;1.00
12845;DHT22;68700;48.534;9.196;2024-02-15T18:18:54;12.70;1.00
12845;DHT22;68700;48.534;9.196;2024-02-15T18:22:17;12.80;1.00
12845;DHT22;68700;48.534;9.196;2024-02-15T18:25:39;12.80;1.00
12845;DHT22;68700;48.534;9.196;2024-02-15T18:29:01;12.70;1.00
12845;DHT22;68700;48.534;9.196;2024-02-15T18:32:22;12.60;1.00
12845;DHT22;68700;48.534;9.196;2024-02-15T18:35:47;12.50;1.00
12845;DHT22;68700;48.534;9.196;2024-02-15T18:39:09;12.50;1.00
12845;DHT22;68700;48.534;9.196;2024-02-15T18:42:31;12.50;1.00
12845;DHT22;68700;48.534;9.196;2024-02-15T18:45:55;12.50;1.00
12845;DHT22;68700;48.534;9.196;2024-02-15T18:49:17;12.40;1.00
12845;DHT22;68700;48.534;9.196;2024-02-15T18:52:41;12.40;1.00
12845;DHT22;68700;48.534;9.196;2024-02-15T18:56:04;12.50;1.00
12845;DHT22;68700;48.534;9.196;2024-02-15T18:59:35;12.50;1.00
12845;DHT22;68700;48.534;9.196;2024-02-15T19:02:58;12.60;1.00
12845;DHT22;68700;48.534;9.196;2024-02-15T19:06:21;12.70;1.00
12845;DHT22;68700;48.534;9.196;2024-02-15T19:09:44;12.70;1.00
12845;DHT22;68700;48.534;9.196;2024-02-15T19:13:06;12.60;1.00
12845;DHT22;68700;48.534;9.196;2024-02-15T19:16:28;12.50;1.00
12845;DHT22;68700;48.534;9.196;2024-02-15T19:19:50;12.40;1.00
12845;DHT22;68700;48.534;9.196;2024-02-15T19:23:12;12.20;1.00
12845;DHT22;68700;48.534;9.196;2024-02-15T19:26:36;12.00;1.00
12845;DHT22;68700;48.534;9.196;2024-02-15T19:30:00;11.80;1.00
12845;DHT22;68700;48.534;9.196;2024-02-15T19:33:22;11.80;1.00
12845;DHT22;68700;48.534;9.196;2024-02-15T19:36:45;11.60;1.00
12845;DHT22;68700;48.534;9.196;2024-02-15T19:40:09;11.40;1.00
12845;DHT22;68700;48.534;9.196;2024-02-15T19:43:38;11.30;1.00
12845;DHT22;68700;48.534;9.196;2024-02-15T19:47:00;10.80;1.00
12845;DHT22;68700;48.534;9.196;2024-02-15T19:50:24;10.70;1.00
12845;DHT22;68700;48.534;9.196;2024-02-15T19:53:47;10.50;1.00
12845;DHT22;68700;48.534;9.196;2024-02-15T19:57:09;10.40;1.00
12845;DHT22;68700;48.534;9.196;2024-02-15T20:00:32;10.40;1.00
12845;DHT22;68700;48.534;9.196;2024-02-15T20:03:55;10.30;1.00
12845;DHT22;68700;48.534;9.196;2024-02-15T20:07:17;10.80;1.00
12845;DHT22;68700;48.534;9.196;2024-02-15T20:10:48;11.80;1.00
12845;DHT22;68700;48.534;9.196;2024-02-15T20:14:14;12.40;1.00
12845;DHT22;68700;48.534;9.196;2024-02-15T20:17:40;12.70;1.00
12845;DHT22;68700;48.534;9.196;2024-02-15T20:21:02;12.90;1.00
12845;DHT22;68700;48.534;9.196;2024-02-15T20:24:28;12.90;1.00
12845;DHT22;68700;48.534;9.196;2024-02-15T20:27:50;12.80;1.00
12845;DHT22;68700;48.534;9.196;2024-02-15T20:31:12;12.60;1.00
12845;DHT22;68700;48.534;9.196;2024-02-15T20:34:35;12.30;1.00
12845;DHT22;68700;48.534;9.196;2024-02-15T20:37:57;11.90;1.00
12845;DHT22;68700;48.534;9.196;2024-02-15T20:41:19;11.70;1.00
12845;DHT22;68700;48.534;9.196;2024-02-15T20:44:46;11.40;1.00
12845;DHT22;68700;48.534;9.196;2024-02-15T20:48:08;11.20;1.00
12845;DHT22;68700;48.534;9.196;2024-02-15T20:51:31;11.00;1.00
12845;DHT22;68700;48.534;9.196;2024-02-15T20:54:55;10.90;1.00
12845;DHT22;68700;48.534;9.196;2024-02-15T20:58:18;10.70;1.00
12845;DHT22;68700;48.534;9.196;2024-02-15T21:01:41;10.60;1.00
12845;DHT22;68700;48.534;9.196;2024-02-15T21:05:04;10.30;1.00
12845;DHT22;68700;48.534;9.196;2024-02-15T21:08:31;10.10;1.00
12845;DHT22;68700;48.534;9.196;2024-02-15T21:11:53;10.00;1.00
12845;DHT22;68700;48.534;9.196;2024-02-15T21:15:16;9.80;1.00
12845;DHT22;68700;48.534;9.196;2024-02-15T21:18:37;9.70;1.00
12845;DHT22;68700;48.534;9.196;2024-02-15T21:21:59;9.80;1.00
12845;DHT22;68700;48.534;9.196;2024-02-15T21:25:23;9.70;1.00
12845;DHT22;68700;48.534;9.196;2024-02-15T21:28:45;9.60;1.00
12845;DHT22;68700;48.534;9.196;2024-02-15T21:32:07;9.60;1.00
12845;DHT22;68700;48.534;9.196;2024-02-15T21:35:29;9.50;1.00
12845;DHT22;68700;48.534;9.196;2024-02-15T21:38:50;9.40;1.00
12845;DHT22;68700;48.534;9.196;2024-02-15T21:42:14;9.20;1.00
12845;DHT22;68700;48.534;9.196;2024-02-15T21:45:36;9.00;1.00
12845;DHT22;68700;48.534;9.196;2024-02-15T21:48:58;8.80;1.00
12845;DHT22;68700;48.534;9.196;2024-02-15T21:52:20;8.70;1.00